^^
Grace C. Lehan Memorial Weather Station Historical Data
Daily Summary for April 17, 2021 Units:  English    Metric   Both
Daily Weekly Monthly Yearly
  High: Low: Average:
Temperature: 65.3 °F 50.2 °F 56.5 °F
Dew Point: 56.5 °F 45.6 °F 50.9 °F
Humidity: 95% 58.3% 83%
Wind Speed: 6mph 0mph 0.8mph
Wind Gust: 17mph - -
Wind- - WNW
Pressure: 29.76 in 29.64 in -
Precipitation: 0.00 in    
 
 
Tabular Data for April 17, 2021
Time Temperature Dew Point Pressure Wind Wind Speed Wind Gust Humidity Rainfall Rate (Hourly) solar
00:00 58.2 °F 56.5 °F 29.66 in Calm     94% 0.20 in 0 W/m2
00:09 58 °F 56.3 °F 29.65 in Calm     94% 0.20 in 0 W/m2
00:14 58 °F 56.3 °F 29.67 in Calm     94% 0.20 in 0 W/m2
00:19 58 °F 56.3 °F 29.67 in Calm     94% 0.21 in 0 W/m2
00:24 57.9 °F 56.2 °F 29.66 in Calm     94% 0.21 in 0 W/m2
00:29 57.9 °F 56.2 °F 29.67 in Calm     94% 0.21 in 0 W/m2
00:34 57.9 °F 56.2 °F 29.66 in Calm     94% 0.21 in 0 W/m2
00:39 58 °F 56.3 °F 29.66 in Calm     94% 0.04 in 0 W/m2
00:44 58 °F 56.3 °F 29.67 in Calm     94% 0.05 in 0 W/m2
00:49 58 °F 56.3 °F 29.65 in Calm     94% 0.05 in 0 W/m2
00:54 58 °F 56.3 °F 29.65 in Calm     94% 0.05 in 0 W/m2
00:59 57.9 °F 56.2 °F 29.65 in Calm     94% 0.05 in 0 W/m2
01:04 57.8 °F 56.1 °F 29.65 in Calm     94% 0.05 in 0 W/m2
01:09 57.7 °F 56 °F 29.66 in Calm     94% 0.03 in 0 W/m2
01:14 57.7 °F 56.1 °F 29.66 in Calm     94.5% 0.03 in 0 W/m2
01:19 57.6 °F 56.2 °F 29.64 in Calm     95% 0.03 in 0 W/m2
01:24 57.6 °F 56.2 °F 29.64 in Calm   1 mph 95% 0.03 in 0 W/m2
01:29 57.5 °F 56 °F 29.64 in NNW 0.3 mph 5 mph 94.7% 0.03 in 0 W/m2
01:34 57.3 °F 55.6 °F 29.64 in NW 1.2 mph 5 mph 94% 0.03 in 0 W/m2
01:39 57.1 °F 55.4 °F 29.65 in WNW 0.9 mph 9 mph 94% 0.03 in 0 W/m2
01:44 56.9 °F 55.2 °F 29.67 in West 0.2 mph 9 mph 94% 0.03 in 0 W/m2
01:49 56.8 °F 55.2 °F 29.67 in Calm   9 mph 94.2% 0.03 in 0 W/m2
01:54 56.8 °F 55.1 °F 29.67 in Calm   9 mph 94.1% 0.03 in 0 W/m2
01:59 56.7 °F 55 °F 29.68 in Calm   9 mph 94% 0.03 in 0 W/m2
02:04 56.7 °F 55 °F 29.68 in Calm   9 mph 94% 0.03 in 0 W/m2
02:09 56.6 °F 55 °F 29.68 in Calm     94.5% 0.01 in 0 W/m2
02:14 56.5 °F 54.9 °F 29.67 in Calm     94.5% 0.01 in 0 W/m2
02:19 56.3 °F 54.8 °F 29.67 in Calm     94.4% 0.01 in 0 W/m2
02:24 56.2 °F 54.5 °F 29.67 in West 0.3 mph 4 mph 94% 0.01 in 0 W/m2
02:29 55.9 °F 54.2 °F 29.67 in Calm   4 mph 94% 0.01 in 0 W/m2
02:34 55.7 °F 54 °F 29.67 in West 0.7 mph 4 mph 94% 0.01 in 0 W/m2
02:39 55.5 °F 53.8 °F 29.67 in Calm   4 mph 94% 0.00 in 0 W/m2
02:44 55.3 °F 53.6 °F 29.67 in WNW 0.2 mph 4 mph 94% 0.00 in 0 W/m2
02:49 55.1 °F 53.4 °F 29.66 in Calm   4 mph 94% 0.00 in 0 W/m2
02:54 54.9 °F 53.2 °F 29.66 in WNW 0.3 mph 4 mph 94% 0.00 in 0 W/m2
02:59 54.7 °F 53 °F 29.65 in WNW 0.2 mph 4 mph 94% 0.00 in 0 W/m2
03:04 54.5 °F 52.8 °F 29.65 in WNW 0.1 mph 4 mph 94% 0.00 in 0 W/m2
03:09 54.4 °F 52.7 °F 29.65 in WNW 0.1 mph 2 mph 94% 0.00 in 0 W/m2
03:14 54.2 °F 52.5 °F 29.65 in WNW 0.2 mph 4 mph 94% 0.00 in 0 W/m2
03:19 54.1 °F 52.4 °F 29.65 in Calm   4 mph 94% 0.00 in 0 W/m2
03:24 53.9 °F 52.3 °F 29.65 in Calm   4 mph 94% 0.00 in 0 W/m2
03:29 53.8 °F 52.2 °F 29.66 in Calm   4 mph 94% 0.00 in 0 W/m2
03:34 53.7 °F 52 °F 29.66 in Calm   4 mph 94% 0.00 in 0 W/m2
03:39 53.6 °F 52 °F 29.66 in Calm     94% 0.00 in 0 W/m2
03:44 53.5 °F 51.9 °F 29.66 in Calm     94% 0.00 in 0 W/m2
03:49 53.4 °F 51.7 °F 29.66 in Calm     94% 0.00 in 0 W/m2
03:54 53.3 °F 51.5 °F 29.66 in Calm     93.6% 0.00 in 0 W/m2
03:59 53.2 °F 51.6 °F 29.66 in Calm     94% 0.00 in 0 W/m2
04:00 53.2 °F 51.5 °F 29.66 in Calm     94% 0.00 in 0 W/m2
04:09 53 °F 51.3 °F 29.66 in Calm     94% 0.00 in 0 W/m2
04:14 52.9 °F 51.2 °F 29.67 in WNW 0.1 mph 2 mph 94% 0.00 in 0 W/m2
04:19 52.8 °F 51.1 °F 29.67 in Calm   2 mph 94% 0.00 in 0 W/m2
04:24 52.7 °F 51.1 °F 29.67 in Calm   2 mph 94% 0.00 in 0 W/m2
04:29 52.6 °F 50.9 °F 29.67 in Calm   2 mph 94% 0.00 in 0 W/m2
04:34 52.4 °F 50.8 °F 29.67 in Calm   2 mph 94% 0.00 in 0 W/m2
04:39 52.3 °F 50.6 °F 29.67 in Calm     94% 0.00 in 0 W/m2
04:44 52.2 °F 50.5 °F 29.67 in Calm     94% 0.00 in 0 W/m2
04:49 52.1 °F 50.4 °F 29.68 in Calm     94% 0.00 in 0 W/m2
04:54 52.1 °F 50.4 °F 29.68 in Calm     94% 0.00 in 0 W/m2
04:59 52 °F 50.3 °F 29.68 in Calm     94% 0.00 in 0 W/m2
05:04 51.9 °F 50.3 °F 29.68 in Calm     94% 0.00 in 0 W/m2
05:09 51.9 °F 50.2 °F 29.68 in Calm     94% 0.00 in 0 W/m2
05:14 51.8 °F 50.1 °F 29.69 in Calm     94% 0.00 in 0 W/m2
05:19 51.8 °F 50.1 °F 29.69 in Calm     94% 0.00 in 0 W/m2
05:24 51.7 °F 50.1 °F 29.69 in Calm     94% 0.00 in 0 W/m2
05:29 51.7 °F 50 °F 29.69 in Calm     94% 0.00 in 0 W/m2
05:34 51.5 °F 49.8 °F 29.69 in Calm     94% 0.01 in 0 W/m2
05:39 51.3 °F 49.7 °F 29.69 in Calm     94% 0.01 in 0 W/m2
05:44 51.2 °F 49.5 °F 29.69 in Calm     94% 0.01 in 0 W/m2
05:49 51.2 °F 49.7 °F 29.69 in Calm     94.6% 0.01 in 0 W/m2
05:54 51.2 °F 49.8 °F 29.69 in Calm     95% 0.01 in 0 W/m2
05:59 51.2 °F 49.8 °F 29.69 in Calm     95% 0.01 in 0 W/m2
06:04 51.1 °F 49.6 °F 29.69 in Calm     94.5% 0.01 in 0 W/m2
06:09 51 °F 49.3 °F 29.69 in Calm     94% 0.01 in 0 W/m2
06:14 50.9 °F 49.2 °F 29.70 in Calm     94% 0.01 in 0 W/m2
06:19 50.8 °F 49.3 °F 29.70 in Calm     94.6% 0.01 in 0 W/m2
06:24 50.7 °F 49.4 °F 29.70 in Calm     95% 0.01 in 0 W/m2
06:29 50.6 °F 49.3 °F 29.70 in Calm     95% 0.01 in 0 W/m2
06:34 50.6 °F 49.2 °F 29.70 in Calm     95% 0.01 in 0 W/m2
06:39 50.6 °F 49.2 °F 29.70 in Calm     95% 0.01 in 0 W/m2
06:44 50.6 °F 49.2 °F 29.70 in Calm     95% 0.01 in 0 W/m2
06:49 50.5 °F 49.2 °F 29.70 in Calm     95% 0.01 in 0 W/m2
06:54 50.5 °F 49.1 °F 29.70 in WNW 0.5 mph 4 mph 95% 0.01 in 0 W/m2
06:59 50.5 °F 49.1 °F 29.71 in WNW 0.2 mph 4 mph 95% 0.01 in 0 W/m2
07:04 50.4 °F 49.1 °F 29.71 in WNW 0.4 mph 4 mph 95% 0.01 in 0 W/m2
07:09 50.3 °F 49 °F 29.71 in WNW 0.2 mph 4 mph 95% 0.00 in 0 W/m2
07:14 50.3 °F 48.9 °F 29.71 in Calm   4 mph 95% 0.00 in 5 W/m2
07:19 50.3 °F 48.9 °F 29.71 in Calm   4 mph 95% 0.00 in 7 W/m2
07:24 50.2 °F 48.8 °F 29.71 in WNW 0.2 mph 4 mph 95% 0.00 in 9 W/m2
07:29 50.2 °F 48.8 °F 29.72 in WNW 0.6 mph 5 mph 95% 0.00 in 9 W/m2
07:34 50.2 °F 48.8 °F 29.72 in WNW 0.9 mph 5 mph 95% 0.00 in 11 W/m2
07:39 50.3 °F 48.9 °F 29.72 in Calm   4 mph 95% 0.00 in 23 W/m2
07:44 50.4 °F 49 °F 29.72 in Calm   4 mph 95% 0.00 in 21 W/m2
07:49 50.5 °F 49.1 °F 29.72 in WNW 0.2 mph 4 mph 95% 0.00 in 21 W/m2
07:54 50.6 °F 49.2 °F 29.72 in Calm   4 mph 95% 0.00 in 23 W/m2
07:59 50.7 °F 49.3 °F 29.72 in Calm   4 mph 94.7% 0.00 in 26 W/m2
08:00 50.8 °F 49.1 °F 29.72 in Calm   4 mph 94% 0.00 in 21 W/m2
08:09 50.9 °F 49.3 °F 29.72 in Calm     94% 0.00 in 18 W/m2
08:14 51.1 °F 49.4 °F 29.72 in Calm     94% 0.00 in 19 W/m2
08:19 51.2 °F 49.5 °F 29.72 in Calm     94% 0.00 in 23 W/m2
08:24 51.3 °F 49.7 °F 29.72 in WNW 0.1 mph 2 mph 94% 0.00 in 25 W/m2
08:29 51.5 °F 49.9 °F 29.72 in West 0.9 mph 4 mph 94% 0.00 in 49 W/m2
08:34 51.8 °F 50.1 °F 29.72 in WNW 0.1 mph 4 mph 94% 0.00 in 49 W/m2
08:39 52 °F 50.4 °F 29.72 in West 0.5 mph 4 mph 94% 0.00 in 42 W/m2
08:44 52.3 °F 50.6 °F 29.72 in Calm   4 mph 94% 0.00 in 123 W/m2
08:49 52.6 °F 50.9 °F 29.72 in Calm   4 mph 94% 0.00 in 123 W/m2
08:54 53 °F 51.2 °F 29.73 in Calm   4 mph 93.5% 0.00 in 288 W/m2
08:59 53.6 °F 51.5 °F 29.73 in WNW 0.4 mph 5 mph 92.5% 0.00 in 308 W/m2
09:04 54.5 °F 52.1 °F 29.73 in WNW 0.1 mph 5 mph 91.6% 0.00 in 323 W/m2
09:09 55.5 °F 52.7 °F 29.73 in WNW 0.3 mph 4 mph 90.3% 0.00 in 338 W/m2
09:14 56.5 °F 52.9 °F 29.73 in WNW 0.1 mph 4 mph 87.7% 0.00 in 355 W/m2
09:19 57.6 °F 53.6 °F 29.73 in WNW 0.4 mph 4 mph 86.3% 0.00 in 373 W/m2
09:24 58.6 °F 53.4 °F 29.73 in WNW 2.2 mph 11 mph 82.9% 0.00 in 387 W/m2
09:29 59.2 °F 52.8 °F 29.73 in NW 1.4 mph 11 mph 79.3% 0.00 in 404 W/m2
09:34 59.8 °F 53.2 °F 29.73 in NW 0.9 mph 11 mph 78.8% 0.00 in 420 W/m2
09:39 60.4 °F 53.3 °F 29.73 in North 0.2 mph 6 mph 77.3% 0.00 in 438 W/m2
09:44 61 °F 53.5 °F 29.73 in NNW 1 mph 6 mph 76.3% 0.00 in 450 W/m2
09:49 61.4 °F 53.2 °F 29.73 in NNW 1.6 mph 8 mph 74.4% 0.00 in 466 W/m2
09:54 61.7 °F 52.9 °F 29.73 in NW 0.3 mph 8 mph 72.8% 0.00 in 497 W/m2
09:59 62.1 °F 53.1 °F 29.73 in WNW 0.8 mph 8 mph 72.3% 0.00 in 499 W/m2
10:04 62.2 °F 53.2 °F 29.73 in Calm   8 mph 72.2% 0.00 in 519 W/m2
10:09 62.6 °F 54 °F 29.73 in Calm     73.3% 0.00 in 598 W/m2
10:14 63.2 °F 54.1 °F 29.73 in WNW 0.7 mph 4 mph 72.3% 0.00 in 677 W/m2
10:19 63.5 °F 53.6 °F 29.73 in WNW 0.9 mph 5 mph 70.2% 0.00 in 677 W/m2
10:24 63.3 °F 52.6 °F 29.73 in WNW 4.4 mph 11 mph 68% 0.00 in 322 W/m2
10:29 62.5 °F 51.6 °F 29.73 in WNW 4.3 mph 13 mph 67.4% 0.00 in 717 W/m2
10:34 61.9 °F 51.7 °F 29.73 in WNW 2.7 mph 13 mph 69.2% 0.00 in 257 W/m2
10:39 61.4 °F 51.2 °F 29.73 in NW 1.8 mph 11 mph 69.1% 0.00 in 230 W/m2
10:44 61.3 °F 51.5 °F 29.73 in WNW 0.4 mph 11 mph 70.1% 0.00 in 698 W/m2
10:49 61.6 °F 51.9 °F 29.73 in NW 1.2 mph 11 mph 70.4% 0.00 in 698 W/m2
10:54 61.8 °F 51.3 °F 29.73 in NNW 1.2 mph 11 mph 68.2% 0.00 in 278 W/m2
10:59 61.8 °F 51.9 °F 29.73 in NNW 0.6 mph 11 mph 69.9% 0.00 in 278 W/m2
11:04 61.9 °F 51.8 °F 29.73 in NNW 0.8 mph 11 mph 69.3% 0.00 in 248 W/m2
11:09 62.2 °F 51.7 °F 29.73 in WNW 2 mph 11 mph 68.5% 0.00 in 248 W/m2
11:14 62.3 °F 51.7 °F 29.73 in NW 0.5 mph 11 mph 68.3% 0.00 in 181 W/m2
11:19 62 °F 50.4 °F 29.72 in NW 6 mph 16 mph 65.7% 0.00 in 130 W/m2
11:24 61.3 °F 50 °F 29.72 in WNW 4.1 mph 16 mph 66.3% 0.00 in 394 W/m2
11:29 61.3 °F 50.7 °F 29.72 in WNW 3.5 mph 16 mph 68.1% 0.00 in 394 W/m2
11:34 61.8 °F 51 °F 29.72 in NW 1.1 mph 16 mph 67.6% 0.00 in 571 W/m2
11:39 62.4 °F 51.7 °F 29.72 in NNW 0.5 mph 6 mph 68.1% 0.00 in 406 W/m2
11:44 62.9 °F 51.8 °F 29.72 in NW 0.8 mph 6 mph 67% 0.00 in 522 W/m2
11:49 63.6 °F 52.3 °F 29.71 in WNW 1.7 mph 7 mph 66.7% 0.00 in 496 W/m2
11:54 64 °F 51.7 °F 29.71 in West 2.9 mph 12 mph 64.2% 0.00 in 313 W/m2
11:59 63.9 °F 50.8 °F 29.71 in WNW 3.9 mph 15 mph 62.3% 0.00 in 313 W/m2
12:00 63.8 °F 51 °F 29.71 in Calm   15 mph 63% 0.00 in 91 W/m2
12:09 64.1 °F 52 °F 29.71 in NW 1.4 mph 16 mph 64.7% 0.00 in 318 W/m2
12:14 64.5 °F 51.4 °F 29.71 in WNW 2.9 mph 16 mph 62.4% 0.00 in 824 W/m2
12:19 65 °F 51 °F 29.71 in WNW 5.6 mph 16 mph 60.7% 0.00 in 824 W/m2
12:24 64.9 °F 49.9 °F 29.70 in West 4 mph 16 mph 58.3% 0.00 in 237 W/m2
12:29 64.5 °F 50.4 °F 29.71 in WNW 4.7 mph 16 mph 60.1% 0.00 in 211 W/m2
12:34 64.4 °F 50.6 °F 29.70 in WNW 2.6 mph 16 mph 60.9% 0.00 in 188 W/m2
12:39 64.6 °F 50.6 °F 29.70 in West 3.9 mph 15 mph 60.3% 0.00 in 390 W/m2
12:44 65 °F 51 °F 29.70 in WNW 4.7 mph 15 mph 60.7% 0.00 in 323 W/m2
12:49 65.3 °F 51.1 °F 29.70 in WNW 2.3 mph 15 mph 60% 0.00 in 223 W/m2
12:54 65.3 °F 50.5 °F 29.70 in NW 3.1 mph 15 mph 58.8% 0.00 in 160 W/m2
12:59 64.8 °F 50.1 °F 29.70 in NW 1.9 mph 15 mph 59% 0.00 in 155 W/m2
13:04 64.2 °F 50.2 °F 29.69 in NW 2.3 mph 15 mph 60.4% 0.00 in 142 W/m2
13:09 63.7 °F 49.9 °F 29.69 in WNW 1.6 mph 7 mph 60.9% 0.00 in 181 W/m2
13:14 63.3 °F 49.4 °F 29.69 in WNW 3.5 mph 12 mph 60.5% 0.00 in 234 W/m2
13:19 63.2 °F 49.6 °F 29.69 in West 3.4 mph 12 mph 61.2% 0.00 in 167 W/m2
13:24 63 °F 49.9 °F 29.69 in WNW 1.6 mph 12 mph 62.2% 0.00 in 121 W/m2
13:29 62.9 °F 50 °F 29.69 in WNW 0.3 mph 12 mph 62.7% 0.00 in 100 W/m2
13:34 62.8 °F 49.6 °F 29.69 in West 2.3 mph 12 mph 62% 0.00 in 130 W/m2
13:39 62.5 °F 49.3 °F 29.69 in West 2.1 mph 8 mph 61.9% 0.00 in 162 W/m2
13:44 62.3 °F 49.7 °F 29.69 in West 2.6 mph 10 mph 63.3% 0.00 in 162 W/m2
13:49 62.2 °F 49.2 °F 29.68 in WNW 3 mph 10 mph 62.4% 0.00 in 114 W/m2
13:54 62 °F 49.7 °F 29.68 in WNW 1.9 mph 10 mph 64% 0.00 in 109 W/m2
13:59 61.9 °F 49.1 °F 29.68 in WNW 2 mph 10 mph 63% 0.00 in 111 W/m2
14:02 61.8 °F 49.4 °F 29.68 in Calm   10 mph 63.8% 0.00 in 105 W/m2
15:00 62.6 °F 49.4 °F 29.67 in WNW 3 mph 13 mph 62% 0.00 in 126 W/m2
15:30 61.5 °F 48.4 °F 29.68 in WNW 5 mph 17 mph 62% 0.00 in 94 W/m2
16:04 60.8 °F 49.4 °F 29.69 in WNW 0.4 mph 17 mph 66.1% 0.00 in 94 W/m2
16:09 60.7 °F 49.7 °F 29.69 in West 0.1 mph 5 mph 67% 0.00 in 76 W/m2
16:14 60.7 °F 49.7 °F 29.69 in West 0.7 mph 5 mph 67% 0.00 in 63 W/m2
16:19 60.6 °F 49.7 °F 29.69 in WSW 0.7 mph 6 mph 67.2% 0.00 in 63 W/m2
16:24 60.5 °F 49.8 °F 29.69 in WSW 0.5 mph 6 mph 67.9% 0.00 in 69 W/m2
16:29 60.4 °F 50.1 °F 29.69 in WSW 0.7 mph 7 mph 68.8% 0.00 in 67 W/m2
16:34 60.2 °F 50.2 °F 29.69 in WSW 0.2 mph 7 mph 69.4% 0.00 in 44 W/m2
16:39 60.1 °F 50.6 °F 29.69 in WSW 0.1 mph 4 mph 70.6% 0.00 in 62 W/m2
16:44 60 °F 50.6 °F 29.69 in Calm   4 mph 71% 0.00 in 58 W/m2
16:49 60 °F 50.7 °F 29.68 in Calm   4 mph 71.4% 0.00 in 47 W/m2
16:54 59.9 °F 50.6 °F 29.68 in WSW 0.1 mph 4 mph 71.3% 0.00 in 28 W/m2
16:59 59.8 °F 50.6 °F 29.68 in WSW 0.2 mph 4 mph 71.7% 0.00 in 28 W/m2
17:04 59.6 °F 50.6 °F 29.68 in WSW 0.1 mph 4 mph 72% 0.00 in 28 W/m2
17:09 59.5 °F 50.5 °F 29.68 in WSW 0.2 mph 4 mph 72% 0.00 in 21 W/m2
17:14 59.4 °F 50.1 °F 29.68 in WSW 0.2 mph 5 mph 71.4% 0.00 in 18 W/m2
17:19 59.3 °F 50.1 °F 29.68 in Calm   5 mph 71.5% 0.00 in 16 W/m2
17:24 59.3 °F 50.3 °F 29.69 in Calm   5 mph 72% 0.00 in 16 W/m2
17:29 59.3 °F 50.3 °F 29.69 in Calm   5 mph 72.1% 0.00 in 14 W/m2
17:34 59.3 °F 50.7 °F 29.69 in Calm   5 mph 73.1% 0.00 in 12 W/m2
17:39 59.2 °F 50.9 °F 29.69 in Calm     74% 0.00 in 11 W/m2
17:44 59.1 °F 50.8 °F 29.69 in Calm     74% 0.00 in 9 W/m2
17:49 59 °F 50.9 °F 29.69 in Calm     74.4% 0.00 in 7 W/m2
17:54 58.9 °F 50.6 °F 29.69 in Calm     74% 0.00 in 5 W/m2
17:59 58.7 °F 50.7 °F 29.69 in Calm     74.9% 0.00 in 0 W/m2
18:04 58.5 °F 50.6 °F 29.69 in Calm     75% 0.00 in 0 W/m2
18:09 58.3 °F 50.4 °F 29.70 in Calm     75% 0.00 in 0 W/m2
18:14 58.1 °F 50.4 °F 29.70 in Calm     75.6% 0.00 in 0 W/m2
18:19 57.9 °F 50.7 °F 29.70 in Calm     76.9% 0.00 in 0 W/m2
18:24 57.7 °F 50.6 °F 29.70 in Calm     77% 0.00 in 0 W/m2
18:29 57.6 °F 50.8 °F 29.70 in Calm     78.1% 0.00 in 0 W/m2
18:34 57.4 °F 51.1 °F 29.72 in NW 2.2 mph 17 mph 79.6% 0.00 in 0 W/m2
18:39 56.9 °F 50.8 °F 29.72 in NW 5.3 mph 17 mph 80% 0.01 in 0 W/m2
18:44 56 °F 50.2 °F 29.73 in NW 5.7 mph 17 mph 80.8% 0.02 in 0 W/m2
18:49 55.2 °F 49.9 °F 29.73 in NW 4 mph 17 mph 82.2% 0.02 in 0 W/m2
18:54 54.6 °F 49.7 °F 29.73 in WNW 3.8 mph 17 mph 83.6% 0.02 in 0 W/m2
18:59 54.2 °F 49.8 °F 29.73 in West 2.4 mph 17 mph 85% 0.02 in 0 W/m2
19:04 53.9 °F 49.8 °F 29.73 in WNW 4.2 mph 17 mph 86% 0.02 in 0 W/m2
19:09 53.6 °F 49.5 °F 29.73 in NW 2.5 mph 13 mph 86% 0.03 in 0 W/m2
19:14 53.4 °F 49.4 °F 29.73 in WNW 2.4 mph 13 mph 86% 0.03 in 0 W/m2
19:19 53.2 °F 49.2 °F 29.73 in WNW 5.2 mph 14 mph 86% 0.03 in 0 W/m2
19:24 53 °F 48.6 °F 29.73 in West 2.4 mph 14 mph 85% 0.03 in 0 W/m2
19:29 52.9 °F 48.5 °F 29.73 in West 2.5 mph 14 mph 85% 0.03 in 0 W/m2
19:34 52.8 °F 48.3 °F 29.73 in WNW 2.5 mph 14 mph 84.7% 0.03 in 0 W/m2
19:39 52.7 °F 48 °F 29.73 in West 1.5 mph 12 mph 84% 0.03 in 0 W/m2
19:44 52.7 °F 48.1 °F 29.74 in West 1.1 mph 12 mph 84.4% 0.03 in 0 W/m2
19:49 52.7 °F 48.1 °F 29.74 in Calm   12 mph 84.3% 0.03 in 0 W/m2
19:54 52.7 °F 48.4 °F 29.74 in West 0.5 mph 12 mph 85% 0.03 in 0 W/m2
19:59 52.8 °F 48.3 °F 29.74 in West 0.3 mph 12 mph 84.8% 0.03 in 0 W/m2
20:04 52.8 °F 48.1 °F 29.74 in Calm     84% 0.03 in 0 W/m2
20:09 52.8 °F 48.1 °F 29.74 in WNW 1.3 mph 6 mph 84% 0.03 in 0 W/m2
20:14 52.9 °F 48.2 °F 29.74 in WNW 0.2 mph 6 mph 84% 0.03 in 0 W/m2
20:19 52.9 °F 48.2 °F 29.74 in West 1 mph 6 mph 84% 0.03 in 0 W/m2
20:24 53 °F 48.2 °F 29.74 in NNW 1.1 mph 8 mph 83.8% 0.03 in 0 W/m2
20:29 53 °F 48 °F 29.75 in NW 0.5 mph 8 mph 83% 0.03 in 0 W/m2
20:34 53 °F 48 °F 29.75 in WNW 0.2 mph 8 mph 83% 0.03 in 0 W/m2
20:39 53 °F 47.7 °F 29.75 in WNW 0.2 mph 4 mph 82.1% 0.00 in 0 W/m2
20:44 53 °F 47.7 °F 29.75 in WNW 0.8 mph 6 mph 82.2% 0.00 in 0 W/m2
20:49 53 °F 47.7 °F 29.75 in WNW 0.9 mph 6 mph 82% 0.00 in 0 W/m2
20:54 53 °F 47.7 °F 29.75 in Calm   6 mph 82% 0.00 in 0 W/m2
20:59 52.9 °F 47.4 °F 29.76 in Calm   6 mph 81.5% 0.00 in 0 W/m2
21:04 52.9 °F 47.3 °F 29.76 in WNW 0.2 mph 6 mph 81.2% 0.00 in 0 W/m2
21:09 52.8 °F 47.2 °F 29.76 in Calm   3 mph 81.1% 0.00 in 0 W/m2
21:14 52.8 °F 47.1 °F 29.76 in WNW 0.7 mph 5 mph 81% 0.00 in 0 W/m2
21:19 52.7 °F 47 °F 29.76 in Calm   5 mph 81% 0.00 in 0 W/m2
21:24 52.7 °F 47.3 °F 29.76 in WNW 0.3 mph 5 mph 81.9% 0.00 in 0 W/m2
21:29 52.6 °F 47.3 °F 29.76 in Calm   5 mph 82.1% 0.00 in 0 W/m2
21:34 52.6 °F 47.3 °F 29.76 in WSW 0.6 mph 7 mph 82.4% 0.00 in 0 W/m2
21:35 52.5 °F 47.2 °F 29.76 in SW 0.4 mph 7 mph 82% 0.00 in 0 W/m2
22:00 52.3 °F 47 °F 29.76 in West 1 mph 8 mph 82% 0.00 in 0 W/m2
22:30 52 °F 46.4 °F 29.76 in Calm   7 mph 81% 0.00 in 0 W/m2
23:00 51.7 °F 46.1 °F 29.75 in Calm   6 mph 81% 0.00 in 0 W/m2
23:30 50.9 °F 45.6 °F 29.75 in West 1 mph 9 mph 82% 0.00 in 0 W/m2
Hartford County Weather
Compliments of Weather Underground - 4 mb